Impacts TAF Board INFO
FOR SITUATIONAL AWARENESS. NOT TO BE USED FOR FLIGHT PLANNING PURPOSES.
IDs:

KDTW - Detroit Metro/Wayne, MI, US

Issued at 0119 UTC 20 Feb 2018
Updated at 0129 UTC 20 Feb 2018
Potential Impact None Slight Moderate High
Time0053Z 20/02Z 20/03Z 20/04Z 20/05Z 20/06Z 20/07Z 20/08Z 20/09Z 20/10Z 20/11Z 20/12Z 20/13Z 20/14Z>>
Type OBS PRVL
  [TEMP]  
PRVL
  [TEMP]  
PRVL PRVL PRVL PRVL PRVL PRVL PRVL PRVL PRVL PRVL PRVL
VIS 10 6
  [4]  
6
  [4]  
6 6 6 6 6 6 6 5 5 5 5
CIG 65 45
  [25]  
45
  [25]  
45 45 45 45 45 45 45 8 8 8 8
Cover OVC BKN
  [OVC]  
BKN
  [OVC]  
BKN BKN BKN BKN BKN BKN BKN OVC OVC OVC OVC
FltCat VFR VFR
  [MVFR]  
VFR
  [MVFR]  
VFR VFR VFR VFR VFR VFR VFR IFR IFR IFR IFR
WX -- -SHRA
  [RA BR]  
-SHRA
  [RA BR]  
-SHRA -SHRA -SHRA -SHRA -SHRA -SHRA -SHRA -RA BR -RA BR -RA BR -RA BR
WDir 210 210
[210]
210
[210]
210 210 210 210 210 210 210 200 200 200 200
WSpd 13 13
  [13]  
13
  [13]  
13 13 13 13 13 13 13 13 13 13 13
WGst -- --
  [--]  
--
  [--]  
-- -- -- -- -- -- -- -- -- -- --

Raw TAF
KDTW 200119Z 2001/2106 21013KT 6SM -SHRA SCT025 BKN045
  TEMPO 2001/2004 4SM RA BR BKN025 OVC045
  FM201100 20013KT 5SM -RA BR BKN008 OVC015
  FM201800 21015G22KT 6SM -RA BR SCT008 OVC015


Raw METAR
KDTW 200053Z 21013KT 10SM OVC065 12/12 A2996 RMK AO2 RAE08 SLP148 P0002 T01220117
KDTW 192353Z 21016KT 3SM RA BR SCT025 BKN035 OVC070 13/12 A2995 RMK AO2 PK WND 20027/2336 SFC VIS 6 RAB11 SLP144 P0014 60049 T01280122 10128 20050 53015
KDTW 192253Z 20015KT 6SM BR SCT015 BKN020 OVC025 11/11 A2993 RMK AO2 SLP140 P0001 T01110111

METAR Board
Radar Display
Forecast Discussion

FOR SITUATIONAL AWARENESS. NOT TO BE USED FOR FLIGHT PLANNING PURPOSES.